Time;durP1;ratioP1;P1;durP2;ratioP2;P2;SDS_P1;SDS_P2;PMS_P1;PMS_P2;Temp;Humidity;BMP_temperature;BMP_pressure;BME280_temperature;BME280_humidity;BME280_pressure;Samples;Min_cycle;Max_cycle;Signal;HPM_P1;HPM_P2
2023/08/31 00:01:38;;;;;;;0.10;0.10;;;;;;;;;;6185635;23;20083;-86
2023/08/31 00:04:05;;;;;;;0.10;0.10;;;;;;;;;;6134443;23;20025;-86
2023/08/31 00:06:31;;;;;;;0.10;0.10;;;;;;;;;;6158837;23;20013;-87
2023/08/31 00:08:57;;;;;;;0.10;0.10;;;;;;;;;;6183818;23;20084;-87
2023/08/31 00:11:23;;;;;;;0.10;0.10;;;;;;;;;;6159149;23;20402;-87
2023/08/31 00:13:49;;;;;;;0.10;0.10;;;;;;;;;;6158997;23;20099;-86
2023/08/31 00:16:15;;;;;;;0.10;0.10;;;;;;;;;;6159104;23;20044;-86
2023/08/31 00:18:41;;;;;;;0.10;0.10;;;;;;;;;;6158951;23;20013;-87
2023/08/31 00:21:08;;;;;;;0.10;0.10;;;;;;;;;;6159416;23;20020;-87
2023/08/31 00:23:34;;;;;;;0.10;0.10;;;;;;;;;;6134787;23;20016;-87
2023/08/31 00:26:00;;;;;;;0.10;0.10;;;;;;;;;;6134411;23;20013;-87
2023/08/31 00:28:27;;;;;;;0.10;0.10;;;;;;;;;;6159091;23;20017;-87
2023/08/31 00:30:53;;;;;;;0.10;0.10;;;;;;;;;;6183653;23;20016;-88
2023/08/31 00:33:19;;;;;;;0.10;0.10;;;;;;;;;;6134747;23;20382;-87
2023/08/31 00:35:48;;;;;;;0.10;0.10;;;;;;;;;;6134148;23;20009;-87
2023/08/31 00:38:14;;;;;;;0.10;0.10;;;;;;;;;;6159396;23;20009;-87
2023/08/31 00:40:44;;;;;;;0.10;0.10;;;;;;;;;;6183563;23;20016;-87
2023/08/31 00:43:10;;;;;;;0.10;0.10;;;;;;;;;;6159789;23;20438;-88
2023/08/31 00:45:36;;;;;;;0.10;0.10;;;;;;;;;;6158952;23;20016;-87
2023/08/31 00:48:02;;;;;;;0.10;0.10;;;;;;;;;;6183398;23;20009;-88
2023/08/31 00:50:28;;;;;;;0.10;0.10;;;;;;;;;;6158769;23;20104;-89
2023/08/31 00:52:54;;;;;;;0.10;0.10;;;;;;;;;;6158722;23;20045;-88
2023/08/31 00:55:20;;;;;;;0.10;0.10;;;;;;;;;;6133904;23;20017;-87
2023/08/31 00:57:46;;;;;;;0.10;0.10;;;;;;;;;;6158690;23;20045;-87
2023/08/31 01:00:13;;;;;;;0.10;0.10;;;;;;;;;;6158643;23;20503;-87
2023/08/31 01:02:40;;;;;;;0.10;0.10;;;;;;;;;;6134762;23;20027;-87
2023/08/31 01:05:14;;;;;;;0.10;0.10;;;;;;;;;;6183137;23;20024;-87
2023/08/31 01:07:40;;;;;;;0.10;0.10;;;;;;;;;;6158963;23;20439;-86
2023/08/31 01:10:15;;;;;;;0.10;0.10;;;;;;;;;;6134416;23;20013;-87
2023/08/31 01:12:45;;;;;;;0.10;0.10;;;;;;;;;;6134041;23;20013;-87
2023/08/31 01:15:11;;;;;;;0.10;0.10;;;;;;;;;;6158965;23;20036;-87
2023/08/31 01:17:38;;;;;;;0.10;0.10;;;;;;;;;;6133747;23;20455;-87
2023/08/31 01:20:06;;;;;;;0.10;0.10;;;;;;;;;;6158576;23;20013;-86
2023/08/31 01:22:44;;;;;;;0.10;0.10;;;;;;;;;;6133683;23;20200;-87
2023/08/31 01:25:10;;;;;;;0.10;0.10;;;;;;;;;;6133765;23;20036;-87
2023/08/31 01:27:37;;;;;;;0.10;0.10;;;;;;;;;;6158428;23;20036;-87
2023/08/31 01:30:04;;;;;;;0.10;0.10;;;;;;;;;;6133695;23;20063;-86
2023/08/31 01:32:30;;;;;;;0.10;0.10;;;;;;;;;;6182971;23;20045;-87
2023/08/31 01:34:57;;;;;;;0.10;0.10;;;;;;;;;;6158523;23;20021;-87
2023/08/31 01:37:38;;;;;;;0.10;0.10;;;;;;;;;;6133913;23;20024;-87
2023/08/31 01:40:10;;;;;;;0.10;0.10;;;;;;;;;;6182889;23;20167;-87
2023/08/31 01:42:36;;;;;;;0.10;0.10;;;;;;;;;;6184780;23;20092;-88
2023/08/31 01:45:04;;;;;;;0.10;0.10;;;;;;;;;;6158203;23;20041;-88
2023/08/31 01:47:30;;;;;;;0.10;0.10;;;;;;;;;;6158957;23;20083;-87
2023/08/31 01:49:56;;;;;;;0.13;0.13;;;;;;;;;;6158585;23;20037;-87
2023/08/31 01:52:22;;;;;;;0.10;0.10;;;;;;;;;;6182856;23;20020;-87
2023/08/31 01:54:47;;;;;;;0.10;0.10;;;;;;;;;;6182656;23;20013;-88
2023/08/31 01:57:13;;;;;;;0.10;0.10;;;;;;;;;;6158253;23;20017;-87
2023/08/31 01:59:39;;;;;;;0.10;0.10;;;;;;;;;;6158769;23;20295;-88
2023/08/31 02:02:05;;;;;;;0.10;0.10;;;;;;;;;;6158044;23;20017;-88
2023/08/31 02:04:31;;;;;;;0.10;0.10;;;;;;;;;;6158095;23;20024;-88
2023/08/31 02:06:57;;;;;;;0.10;0.10;;;;;;;;;;6158037;23;20013;-90
2023/08/31 02:09:23;;;;;;;0.10;0.10;;;;;;;;;;6133433;23;20342;-88
2023/08/31 02:11:49;;;;;;;0.10;0.10;;;;;;;;;;6182712;23;20067;-87
2023/08/31 02:14:15;;;;;;;0.10;0.10;;;;;;;;;;6133378;23;20139;-86
2023/08/31 02:16:41;;;;;;;0.10;0.10;;;;;;;;;;6133715;23;20056;-87
2023/08/31 02:19:07;;;;;;;0.17;0.17;;;;;;;;;;6158078;23;20016;-87
2023/08/31 02:21:33;;;;;;;0.10;0.10;;;;;;;;;;6158202;23;20013;-87
2023/08/31 02:23:59;;;;;;;0.10;0.10;;;;;;;;;;6157819;23;20510;-87
2023/08/31 02:26:25;;;;;;;0.10;0.10;;;;;;;;;;6182663;23;20016;-86
2023/08/31 02:28:51;;;;;;;0.10;0.10;;;;;;;;;;6133968;23;20013;-86
2023/08/31 02:31:18;;;;;;;0.10;0.10;;;;;;;;;;6160062;23;20450;-87
2023/08/31 02:33:44;;;;;;;0.10;0.10;;;;;;;;;;6186602;23;20020;-87
2023/08/31 02:36:10;;;;;;;0.10;0.10;;;;;;;;;;6184593;23;20017;-86
2023/08/31 02:38:36;;;;;;;0.10;0.10;;;;;;;;;;6184551;23;20017;-87
2023/08/31 02:41:02;;;;;;;0.10;0.10;;;;;;;;;;6160260;23;20411;-87
2023/08/31 02:43:30;;;;;;;0.10;0.10;;;;;;;;;;6159903;23;20009;-87
2023/08/31 02:46:00;;;;;;;0.10;0.10;;;;;;;;;;6135646;23;20009;-87
2023/08/31 02:48:27;;;;;;;0.10;0.10;;;;;;;;;;6160379;23;20009;-89
2023/08/31 02:50:53;;;;;;;0.10;0.10;;;;;;;;;;6135589;23;20009;-88
2023/08/31 02:53:19;;;;;;;0.10;0.10;;;;;;;;;;6135753;23;20088;-88
2023/08/31 02:55:45;;;;;;;0.10;0.10;;;;;;;;;;6135333;23;20013;-87
2023/08/31 02:58:11;;;;;;;0.10;0.10;;;;;;;;;;6159772;23;20048;-87
2023/08/31 03:00:42;;;;;;;0.10;0.10;;;;;;;;;;6160199;23;20016;-87
2023/08/31 03:03:08;;;;;;;0.10;0.10;;;;;;;;;;6161166;23;20247;-87
2023/08/31 03:05:34;;;;;;;0.10;0.10;;;;;;;;;;6159390;23;20019;-87
2023/08/31 03:08:00;;;;;;;0.10;0.10;;;;;;;;;;6159727;23;20017;-87
2023/08/31 03:10:26;;;;;;;0.10;0.10;;;;;;;;;;6134959;23;20009;-87
2023/08/31 03:12:52;;;;;;;0.10;0.10;;;;;;;;;;6135196;23;20116;-88
2023/08/31 03:15:18;;;;;;;0.10;0.10;;;;;;;;;;6186198;23;20013;-87
2023/08/31 03:17:44;;;;;;;0.10;0.10;;;;;;;;;;6159897;23;20017;-87
2023/08/31 03:20:10;;;;;;;0.10;0.10;;;;;;;;;;6184041;23;20087;-86
2023/08/31 03:22:36;;;;;;;0.10;0.10;;;;;;;;;;6134585;23;20040;-87
2023/08/31 03:25:02;;;;;;;0.10;0.10;;;;;;;;;;6159485;23;20020;-86
2023/08/31 03:27:28;;;;;;;0.10;0.10;;;;;;;;;;6159478;23;20009;-88
2023/08/31 03:29:54;;;;;;;0.10;0.10;;;;;;;;;;6184212;23;20083;-88
2023/08/31 03:32:20;;;;;;;0.10;0.10;;;;;;;;;;6159486;23;20024;-87
2023/08/31 03:34:46;;;;;;;0.10;0.10;;;;;;;;;;6159440;23;20013;-88
2023/08/31 03:37:12;;;;;;;0.10;0.10;;;;;;;;;;6136050;23;20017;-87
2023/08/31 03:39:41;;;;;;;0.10;0.10;;;;;;;;;;6160323;23;20329;-88
2023/08/31 03:42:10;;;;;;;0.10;0.10;;;;;;;;;;6136963;23;20144;-88
2023/08/31 03:44:37;;;;;;;0.10;0.10;;;;;;;;;;6159375;23;20512;-88
2023/08/31 03:47:03;;;;;;;0.10;0.10;;;;;;;;;;6134996;23;20009;-88
2023/08/31 03:49:30;;;;;;;0.10;0.10;;;;;;;;;;6159318;23;20029;-87
2023/08/31 03:51:56;;;;;;;0.10;0.10;;;;;;;;;;6134944;23;20111;-87
2023/08/31 03:54:22;;;;;;;0.10;0.10;;;;;;;;;;6134447;23;20474;-87
2023/08/31 03:56:47;;;;;;;0.10;0.10;;;;;;;;;;6159888;23;20299;-87
2023/08/31 03:59:13;;;;;;;0.10;0.10;;;;;;;;;;6159288;23;20071;-88
2023/08/31 04:01:39;;;;;;;0.10;0.10;;;;;;;;;;6183830;23;20023;-87
2023/08/31 04:04:06;;;;;;;0.10;0.10;;;;;;;;;;6134230;23;20465;-87
2023/08/31 04:06:31;;;;;;;0.10;0.10;;;;;;;;;;6159038;23;20079;-87
2023/08/31 04:08:57;;;;;;;0.10;0.10;;;;;;;;;;6159260;23;20020;-87
2023/08/31 04:11:25;;;;;;;0.10;0.10;;;;;;;;;;6159481;23;20016;-87
2023/08/31 04:13:51;;;;;;;0.10;0.10;;;;;;;;;;6159587;23;20084;-87
2023/08/31 04:16:17;;;;;;;0.10;0.10;;;;;;;;;;6159053;23;20049;-86
2023/08/31 04:18:42;;;;;;;0.10;0.10;;;;;;;;;;6134285;23;20569;-87
2023/08/31 04:21:08;;;;;;;0.10;0.10;;;;;;;;;;6158790;23;20020;-87
2023/08/31 04:23:34;;;;;;;0.20;0.20;;;;;;;;;;6183629;23;20009;-87
2023/08/31 04:26:00;;;;;;;0.10;0.10;;;;;;;;;;6134385;23;20016;-87
2023/08/31 04:28:26;;;;;;;0.10;0.10;;;;;;;;;;6158931;23;20088;-87
2023/08/31 04:30:53;;;;;;;0.10;0.10;;;;;;;;;;6183675;23;20108;-87
2023/08/31 04:33:19;;;;;;;0.10;0.10;;;;;;;;;;6185106;23;20450;-87
2023/08/31 04:35:45;;;;;;;0.10;0.10;;;;;;;;;;6133994;23;20013;-87
2023/08/31 04:38:11;;;;;;;0.10;0.10;;;;;;;;;;6134806;23;20028;-88
2023/08/31 04:40:37;;;;;;;0.10;0.10;;;;;;;;;;6134215;23;20020;-88
2023/08/31 04:43:03;;;;;;;0.10;0.10;;;;;;;;;;6158690;23;20446;-87
2023/08/31 04:45:30;;;;;;;0.10;0.10;;;;;;;;;;6159189;23;20312;-87
2023/08/31 04:47:56;;;;;;;0.10;0.10;;;;;;;;;;6158988;23;20041;-87
2023/08/31 04:50:22;;;;;;;0.10;0.10;;;;;;;;;;6183501;23;20454;-86
2023/08/31 04:52:48;;;;;;;0.10;0.10;;;;;;;;;;6184929;23;20013;-87
2023/08/31 04:55:14;;;;;;;0.10;0.10;;;;;;;;;;6134143;23;20012;-87
2023/08/31 04:57:40;;;;;;;0.10;0.10;;;;;;;;;;6134136;23;20021;-87
2023/08/31 05:00:09;;;;;;;0.10;0.10;;;;;;;;;;6158582;23;20016;-87
2023/08/31 05:02:35;;;;;;;0.10;0.10;;;;;;;;;;6159506;23;20013;-87
2023/08/31 05:05:02;;;;;;;0.10;0.10;;;;;;;;;;6158318;23;20043;-87
2023/08/31 05:07:28;;;;;;;0.10;0.10;;;;;;;;;;6134319;23;20017;-87
2023/08/31 05:09:54;;;;;;;0.10;0.10;;;;;;;;;;6185243;23;20060;-87
2023/08/31 05:12:20;;;;;;;0.10;0.10;;;;;;;;;;6159021;23;20028;-88
2023/08/31 05:14:46;;;;;;;0.10;0.10;;;;;;;;;;6158846;23;20015;-87
2023/08/31 05:17:12;;;;;;;0.20;0.20;;;;;;;;;;6134023;23;20458;-87
2023/08/31 05:19:39;;;;;;;0.10;0.10;;;;;;;;;;6158533;23;20101;-87
2023/08/31 05:22:06;;;;;;;0.10;0.10;;;;;;;;;;6158629;23;20053;-87
2023/08/31 05:24:32;;;;;;;0.10;0.10;;;;;;;;;;6158768;23;20044;-87
2023/08/31 05:26:59;;;;;;;0.10;0.10;;;;;;;;;;6158438;23;20466;-87
2023/08/31 05:29:25;;;;;;;0.20;0.20;;;;;;;;;;6158583;23;20013;-86
2023/08/31 05:31:53;;;;;;;0.65;0.35;;;;;;;;;;6158884;23;20068;-87
2023/08/31 05:34:21;;;;;;;0.10;0.10;;;;;;;;;;6184670;23;20013;-87
2023/08/31 05:36:47;;;;;;;0.10;0.10;;;;;;;;;;6158417;23;20056;-88
2023/08/31 05:39:16;;;;;;;0.10;0.10;;;;;;;;;;6158369;23;20017;-89
2023/08/31 05:41:42;;;;;;;0.13;0.13;;;;;;;;;;6133869;23;20092;-88
2023/08/31 05:44:08;;;;;;;0.10;0.10;;;;;;;;;;6158158;23;20020;-85
2023/08/31 05:46:34;;;;;;;0.10;0.10;;;;;;;;;;6158638;23;20015;-87
2023/08/31 05:49:00;;;;;;;0.10;0.10;;;;;;;;;;6133506;23;20341;-87
2023/08/31 05:51:26;;;;;;;0.10;0.10;;;;;;;;;;6158453;23;20017;-89
2023/08/31 05:53:52;;;;;;;0.10;0.10;;;;;;;;;;6133635;23;20024;-90
2023/08/31 05:56:19;;;;;;;0.10;0.10;;;;;;;;;;6158842;23;20048;-90
2023/08/31 05:58:45;;;;;;;0.10;0.10;;;;;;;;;;6158280;23;20017;-88
2023/08/31 06:01:11;;;;;;;0.10;0.10;;;;;;;;;;6133663;23;20013;-89
2023/08/31 06:03:37;;;;;;;0.10;0.10;;;;;;;;;;6133235;23;20009;-89
2023/08/31 06:06:03;;;;;;;0.10;0.10;;;;;;;;;;6158010;23;20072;-88
2023/08/31 06:08:30;;;;;;;0.10;0.10;;;;;;;;;;6133303;23;20043;-88
2023/08/31 06:10:56;;;;;;;0.10;0.10;;;;;;;;;;6134207;23;20020;-90
2023/08/31 06:13:22;;;;;;;0.10;0.10;;;;;;;;;;6158590;23;20017;-90
2023/08/31 06:15:48;;;;;;;0.10;0.10;;;;;;;;;;6158495;23;20013;-89
2023/08/31 06:18:15;;;;;;;0.10;0.10;;;;;;;;;;6133532;23;20020;-88
2023/08/31 06:20:41;;;;;;;0.10;0.10;;;;;;;;;;6133376;23;20009;-88
2023/08/31 06:23:07;;;;;;;0.10;0.10;;;;;;;;;;6158050;23;20020;-88
2023/08/31 06:25:33;;;;;;;0.10;0.10;;;;;;;;;;6157771;23;20118;-88
2023/08/31 06:27:59;;;;;;;0.10;0.10;;;;;;;;;;6158082;23;20080;-88
2023/08/31 06:30:25;;;;;;;0.10;0.10;;;;;;;;;;6158062;23;20060;-89
2023/08/31 06:32:51;;;;;;;0.10;0.10;;;;;;;;;;6133902;23;20040;-87
2023/08/31 06:35:19;;;;;;;0.10;0.10;;;;;;;;;;6133169;23;20024;-88
2023/08/31 06:37:45;;;;;;;0.10;0.10;;;;;;;;;;6133153;23;20041;-88
2023/08/31 06:40:11;;;;;;;0.22;0.22;;;;;;;;;;6157902;23;20018;-88
2023/08/31 06:42:37;;;;;;;0.10;0.10;;;;;;;;;;6184372;23;20028;-88
2023/08/31 06:45:07;;;;;;;0.10;0.10;;;;;;;;;;6157847;23;20071;-88
2023/08/31 06:47:33;;;;;;;0.10;0.10;;;;;;;;;;6184071;23;20426;-88
2023/08/31 06:50:00;;;;;;;0.10;0.10;;;;;;;;;;6182687;23;20343;-89
2023/08/31 06:52:26;;;;;;;0.10;0.10;;;;;;;;;;6133159;23;20013;-89
2023/08/31 06:54:55;;;;;;;0.10;0.10;;;;;;;;;;6157678;23;20127;-89
2023/08/31 06:57:22;;;;;;;0.10;0.10;;;;;;;;;;6182497;23;20013;-89
2023/08/31 06:59:48;;;;;;;0.20;0.20;;;;;;;;;;6158348;23;20020;-89
2023/08/31 07:02:14;;;;;;;0.10;0.10;;;;;;;;;;6182339;23;20044;-89
2023/08/31 07:04:40;;;;;;;0.20;0.20;;;;;;;;;;6157289;23;20060;-89
2023/08/31 07:07:06;;;;;;;0.10;0.10;;;;;;;;;;6133441;23;20009;-89
2023/08/31 07:09:32;;;;;;;0.10;0.10;;;;;;;;;;6133914;23;20020;-89
2023/08/31 07:11:59;;;;;;;0.10;0.10;;;;;;;;;;6133456;23;20013;-89
2023/08/31 07:14:25;;;;;;;0.20;0.20;;;;;;;;;;6182610;23;20099;-89
2023/08/31 07:16:51;;;;;;;0.10;0.10;;;;;;;;;;6135682;23;20019;-89
2023/08/31 07:19:17;;;;;;;0.10;0.10;;;;;;;;;;6159579;23;20041;-89
2023/08/31 07:21:45;;;;;;;0.10;0.10;;;;;;;;;;6159849;23;20016;-89
2023/08/31 07:24:11;;;;;;;0.85;0.75;;;;;;;;;;6135089;23;20075;-90
2023/08/31 07:26:37;;;;;;;0.10;0.10;;;;;;;;;;6159765;23;20084;-89
2023/08/31 07:29:04;;;;;;;0.10;0.10;;;;;;;;;;6185897;23;20081;-87
2023/08/31 07:31:31;;;;;;;0.10;0.10;;;;;;;;;;6134755;23;20549;-87
2023/08/31 07:33:56;;;;;;;0.10;0.10;;;;;;;;;;6159588;23;20331;-87
2023/08/31 07:36:22;;;;;;;0.10;0.10;;;;;;;;;;6159421;23;20020;-88
2023/08/31 07:38:48;;;;;;;0.15;0.15;;;;;;;;;;6159509;23;20013;-89
2023/08/31 07:41:14;;;;;;;0.10;0.10;;;;;;;;;;6135243;23;20453;-88
2023/08/31 07:43:40;;;;;;;0.10;0.10;;;;;;;;;;6159737;23;20308;-88
2023/08/31 07:46:06;;;;;;;0.10;0.10;;;;;;;;;;6159379;23;20334;-87
2023/08/31 07:48:32;;;;;;;0.10;0.10;;;;;;;;;;6184162;23;20043;-88
2023/08/31 07:50:58;;;;;;;0.20;0.20;;;;;;;;;;6134477;23;20010;-88
2023/08/31 07:53:24;;;;;;;0.10;0.10;;;;;;;;;;6185696;23;20020;-88
2023/08/31 07:55:54;;;;;;;0.10;0.10;;;;;;;;;;6159540;23;20380;-88
2023/08/31 07:58:21;;;;;;;0.10;0.10;;;;;;;;;;6159764;23;20013;-88
2023/08/31 08:00:47;;;;;;;0.20;0.20;;;;;;;;;;6159134;23;20013;-88
2023/08/31 08:03:14;;;;;;;0.20;0.20;;;;;;;;;;6159440;23;20024;-89
2023/08/31 08:05:41;;;;;;;0.20;0.20;;;;;;;;;;6159005;23;20451;-88
2023/08/31 08:08:07;;;;;;;0.10;0.10;;;;;;;;;;6135022;23;20009;-89
2023/08/31 08:10:33;;;;;;;0.20;0.20;;;;;;;;;;6159298;23;20017;-89
2023/08/31 08:12:59;;;;;;;0.10;0.10;;;;;;;;;;6135000;23;20013;-89
2023/08/31 08:15:25;;;;;;;0.10;0.10;;;;;;;;;;6158967;23;20484;-89
2023/08/31 08:17:53;;;;;;;0.13;0.13;;;;;;;;;;6185560;23;20499;-89
2023/08/31 08:20:19;;;;;;;0.20;0.20;;;;;;;;;;6183721;23;20343;-88
2023/08/31 08:22:45;;;;;;;0.20;0.20;;;;;;;;;;6159004;23;20093;-88
2023/08/31 08:25:11;;;;;;;0.10;0.10;;;;;;;;;;6158820;23;20435;-88
2023/08/31 08:27:37;;;;;;;0.10;0.10;;;;;;;;;;6158901;23;20017;-88
2023/08/31 08:30:03;;;;;;;0.10;0.10;;;;;;;;;;6159067;23;20015;-88
2023/08/31 08:32:29;;;;;;;0.20;0.20;;;;;;;;;;6134080;23;20024;-88
2023/08/31 08:34:55;;;;;;;0.20;0.20;;;;;;;;;;6158646;23;20009;-89
2023/08/31 08:37:21;;;;;;;0.10;0.10;;;;;;;;;;6183563;23;20079;-88
2023/08/31 08:39:50;;;;;;;0.10;0.10;;;;;;;;;;6158701;23;20017;-89
2023/08/31 08:42:16;;;;;;;0.20;0.20;;;;;;;;;;6183293;23;20362;-91
2023/08/31 08:44:42;;;;;;;0.20;0.20;;;;;;;;;;6158809;23;20457;-91
2023/08/31 08:47:08;;;;;;;0.20;0.20;;;;;;;;;;6159161;23;20009;-91
2023/08/31 08:49:36;;;;;;;0.20;0.20;;;;;;;;;;6159448;23;20439;-90
2023/08/31 08:52:02;;;;;;;0.20;0.20;;;;;;;;;;6159032;23;20021;-91
2023/08/31 08:54:28;;;;;;;0.10;0.10;;;;;;;;;;6134618;23;20019;-92
2023/08/31 08:56:54;;;;;;;0.10;0.10;;;;;;;;;;6134900;23;20033;-90
2023/08/31 08:59:20;;;;;;;0.20;0.20;;;;;;;;;;6159388;23;20021;-91
2023/08/31 09:01:46;;;;;;;0.20;0.20;;;;;;;;;;6135378;23;20343;-91
2023/08/31 09:04:12;;;;;;;0.10;0.10;;;;;;;;;;6135820;23;20024;-91
2023/08/31 09:06:39;;;;;;;0.20;0.20;;;;;;;;;;6159253;23;20339;-90
2023/08/31 09:09:05;;;;;;;0.20;0.20;;;;;;;;;;6134779;23;20013;-91
2023/08/31 09:11:30;;;;;;;0.10;0.10;;;;;;;;;;6167205;23;20052;-91
2023/08/31 09:13:59;;;;;;;0.20;0.20;;;;;;;;;;6177224;23;20041;-88
2023/08/31 09:16:26;;;;;;;0.13;0.13;;;;;;;;;;6183070;23;20017;-90
2023/08/31 09:18:52;;;;;;;0.20;0.20;;;;;;;;;;6153640;23;20067;-91
2023/08/31 09:21:19;;;;;;;0.20;0.20;;;;;;;;;;6175393;23;20009;-91
2023/08/31 09:23:48;;;;;;;0.10;0.10;;;;;;;;;;6173177;23;20064;-90
2023/08/31 09:26:14;;;;;;;0.20;0.20;;;;;;;;;;6183777;23;20024;-90
2023/08/31 09:28:41;;;;;;;0.10;0.10;;;;;;;;;;6158893;23;20005;-89
2023/08/31 09:31:07;;;;;;;0.20;0.20;;;;;;;;;;6134061;23;20017;-92
2023/08/31 09:33:33;;;;;;;0.10;0.10;;;;;;;;;;6133734;23;20009;-90
2023/08/31 09:36:01;;;;;;;0.10;0.10;;;;;;;;;;6158533;23;20088;-88
2023/08/31 09:38:27;;;;;;;0.20;0.20;;;;;;;;;;6157450;23;20009;-89
2023/08/31 09:41:01;;;;;;;0.10;0.10;;;;;;;;;;6158330;23;20031;-88
2023/08/31 09:43:27;;;;;;;0.10;0.10;;;;;;;;;;6158283;23;20017;-88
2023/08/31 09:45:53;;;;;;;0.10;0.10;;;;;;;;;;6158335;23;20031;-87
2023/08/31 09:48:19;;;;;;;0.10;0.10;;;;;;;;;;6182865;23;20013;-87
2023/08/31 09:50:45;;;;;;;0.10;0.10;;;;;;;;;;6158268;23;20083;-88
2023/08/31 09:53:11;;;;;;;0.10;0.10;;;;;;;;;;6182949;23;20049;-87
2023/08/31 09:55:39;;;;;;;0.10;0.10;;;;;;;;;;6158279;23;20017;-87
2023/08/31 09:58:05;;;;;;;0.10;0.10;;;;;;;;;;6158164;23;20017;-87
2023/08/31 10:00:31;;;;;;;0.10;0.10;;;;;;;;;;6158761;23;20474;-87
2023/08/31 10:02:59;;;;;;;0.10;0.10;;;;;;;;;;6133475;23;20332;-87
2023/08/31 10:05:25;;;;;;;0.10;0.10;;;;;;;;;;6158121;23;20013;-87
2023/08/31 10:07:52;;;;;;;0.10;0.10;;;;;;;;;;6158247;23;20087;-87
2023/08/31 10:10:19;;;;;;;0.10;0.10;;;;;;;;;;6133616;23;20458;-87
2023/08/31 10:12:46;;;;;;;0.10;0.10;;;;;;;;;;6158684;23;20021;-86
2023/08/31 10:15:12;;;;;;;0.20;0.20;;;;;;;;;;6182878;23;20092;-87
2023/08/31 10:17:38;;;;;;;0.10;0.10;;;;;;;;;;6133355;23;20087;-86
2023/08/31 10:20:04;;;;;;;0.10;0.10;;;;;;;;;;6157978;23;20013;-87
2023/08/31 10:22:31;;;;;;;0.10;0.10;;;;;;;;;;6158535;23;20024;-87
2023/08/31 10:25:01;;;;;;;0.10;0.10;;;;;;;;;;6133112;23;20016;-88
2023/08/31 10:27:27;;;;;;;0.10;0.10;;;;;;;;;;6158227;23;20019;-87
2023/08/31 10:29:53;;;;;;;0.10;0.10;;;;;;;;;;6158476;23;20020;-87
2023/08/31 10:32:21;;;;;;;0.10;0.10;;;;;;;;;;6182564;23;20012;-87
2023/08/31 10:35:05;;;;;;;0.10;0.10;;;;;;;;;;6183935;23;20080;-87
2023/08/31 10:37:31;;;;;;;0.10;0.10;;;;;;;;;;6157866;23;20023;-87
2023/08/31 10:40:07;;;;;;;0.10;0.10;;;;;;;;;;6157800;23;20017;-88
2023/08/31 10:42:33;;;;;;;0.10;0.10;;;;;;;;;;6158129;23;20013;-87
2023/08/31 10:45:22;;;;;;;0.68;0.68;;;;;;;;;;6157736;23;20381;-87
2023/08/31 10:47:49;;;;;;;0.20;0.20;;;;;;;;;;6139420;23;20013;-88
2023/08/31 10:50:22;;;;;;;0.20;0.20;;;;;;;;;;6159337;23;20009;-87
2023/08/31 10:52:49;;;;;;;0.10;0.10;;;;;;;;;;6159693;23;20474;-87
2023/08/31 10:55:15;;;;;;;0.10;0.10;;;;;;;;;;6135428;23;20017;-88
2023/08/31 10:57:41;;;;;;;0.13;0.13;;;;;;;;;;6159734;23;20023;-87
2023/08/31 11:00:07;;;;;;;0.10;0.10;;;;;;;;;;6184392;23;20181;-88
2023/08/31 11:02:43;;;;;;;0.10;0.10;;;;;;;;;;6134901;23;20024;-87
2023/08/31 11:05:18;;;;;;;0.20;0.20;;;;;;;;;;6159494;23;20071;-88
2023/08/31 11:07:44;;;;;;;0.10;0.10;;;;;;;;;;6135732;23;20017;-87
2023/08/31 11:10:10;;;;;;;0.20;0.20;;;;;;;;;;6159838;23;20084;-87
2023/08/31 11:12:37;;;;;;;0.20;0.20;;;;;;;;;;6184760;23;20124;-89
2023/08/31 11:15:03;;;;;;;0.10;0.10;;;;;;;;;;6160250;23;20013;-88
2023/08/31 11:17:32;;;;;;;0.10;0.10;;;;;;;;;;6135297;23;20075;-89
2023/08/31 11:19:58;;;;;;;0.10;0.10;;;;;;;;;;6135404;23;20013;-88
2023/08/31 11:22:25;;;;;;;0.20;0.20;;;;;;;;;;6160043;23;20393;-87
2023/08/31 11:24:51;;;;;;;0.10;0.10;;;;;;;;;;6135407;23;20045;-88
2023/08/31 11:27:21;;;;;;;0.10;0.10;;;;;;;;;;6160234;23;20016;-89
2023/08/31 11:29:47;;;;;;;0.20;0.20;;;;;;;;;;6186366;23;20009;-88
2023/08/31 11:32:13;;;;;;;0.20;0.20;;;;;;;;;;6135097;23;20017;-89
2023/08/31 11:34:42;;;;;;;0.10;0.10;;;;;;;;;;6134905;23;20016;-90
2023/08/31 11:37:08;;;;;;;0.10;0.10;;;;;;;;;;6134552;23;20461;-89
2023/08/31 11:39:34;;;;;;;0.10;0.10;;;;;;;;;;6134982;23;20016;-89
2023/08/31 11:42:00;;;;;;;0.10;0.10;;;;;;;;;;6134868;23;20419;-89
2023/08/31 11:44:26;;;;;;;0.65;0.45;;;;;;;;;;6134770;23;20020;-89
2023/08/31 11:46:52;;;;;;;0.10;0.10;;;;;;;;;;6159491;23;20107;-90
2023/08/31 11:49:18;;;;;;;0.10;0.10;;;;;;;;;;6159937;23;20020;-89
2023/08/31 11:51:44;;;;;;;0.10;0.10;;;;;;;;;;6159512;23;20096;-89
2023/08/31 11:54:10;;;;;;;0.10;0.10;;;;;;;;;;6134593;23;20044;-89
2023/08/31 11:56:40;;;;;;;0.10;0.10;;;;;;;;;;6159509;23;20013;-89
2023/08/31 11:59:11;;;;;;;0.10;0.10;;;;;;;;;;6135100;23;20017;-88
2023/08/31 12:01:38;;;;;;;0.10;0.10;;;;;;;;;;6159590;23;20013;-88
2023/08/31 12:04:10;;;;;;;0.10;0.10;;;;;;;;;;6158828;23;20351;-89
2023/08/31 12:06:36;;;;;;;0.10;0.10;;;;;;;;;;6159560;23;20065;-87
2023/08/31 12:09:04;;;;;;;0.10;0.10;;;;;;;;;;6159050;23;20061;-87
2023/08/31 12:11:30;;;;;;;0.20;0.20;;;;;;;;;;6185463;23;20023;-87
2023/08/31 12:13:59;;;;;;;0.10;0.10;;;;;;;;;;6159338;23;20080;-88
2023/08/31 12:16:25;;;;;;;0.10;0.10;;;;;;;;;;6134258;23;20017;-88
2023/08/31 12:18:51;;;;;;;0.10;0.10;;;;;;;;;;6134441;23;20019;-89
2023/08/31 12:21:20;;;;;;;0.20;0.20;;;;;;;;;;6185141;23;20016;-87
2023/08/31 12:23:46;;;;;;;0.10;0.10;;;;;;;;;;6159204;23;20080;-87
2023/08/31 12:26:12;;;;;;;0.10;0.10;;;;;;;;;;6159456;23;20425;-88
2023/08/31 12:28:38;;;;;;;0.10;0.10;;;;;;;;;;6158865;23;20032;-88
2023/08/31 12:31:05;;;;;;;0.10;0.10;;;;;;;;;;6185140;23;20020;-87
2023/08/31 12:33:30;;;;;;;0.20;0.20;;;;;;;;;;6158890;23;20012;-88
2023/08/31 12:35:56;;;;;;;0.20;0.20;;;;;;;;;;6158824;23;20019;-88
2023/08/31 12:38:22;;;;;;;0.13;0.13;;;;;;;;;;6158798;23;20013;-89
2023/08/31 12:40:48;;;;;;;0.20;0.20;;;;;;;;;;6134416;23;20009;-88
2023/08/31 12:43:16;;;;;;;0.10;0.10;;;;;;;;;;6183402;23;20466;-89
2023/08/31 12:45:42;;;;;;;0.47;0.20;;;;;;;;;;6183359;23;20330;-88
2023/08/31 12:48:08;;;;;;;0.10;0.10;;;;;;;;;;6134008;23;20013;-88
2023/08/31 12:50:34;;;;;;;0.10;0.10;;;;;;;;;;6185198;23;20016;-88
2023/08/31 12:53:00;;;;;;;0.10;0.10;;;;;;;;;;6158602;23;20013;-88
2023/08/31 12:55:26;;;;;;;0.10;0.10;;;;;;;;;;6134159;23;20021;-88
2023/08/31 12:57:53;;;;;;;0.10;0.10;;;;;;;;;;6158908;23;20088;-87
2023/08/31 13:00:19;;;;;;;0.10;0.10;;;;;;;;;;6158648;23;20049;-87
2023/08/31 13:02:45;;;;;;;0.10;0.10;;;;;;;;;;6158588;23;20451;-87
2023/08/31 13:05:11;;;;;;;0.10;0.10;;;;;;;;;;6158232;23;20096;-87
2023/08/31 13:07:37;;;;;;;0.10;0.10;;;;;;;;;;6158479;23;20021;-88
2023/08/31 13:10:04;;;;;;;0.10;0.10;;;;;;;;;;6133433;23;20009;-87
2023/08/31 13:12:33;;;;;;;0.10;0.10;;;;;;;;;;6133650;23;20055;-86
2023/08/31 13:14:59;;;;;;;0.10;0.10;;;;;;;;;;6183205;23;20075;-89
2023/08/31 13:17:26;;;;;;;0.30;0.30;;;;;;;;;;6158688;23;20023;-88
2023/08/31 13:19:56;;;;;;;0.10;0.10;;;;;;;;;;6134779;23;20080;-87
2023/08/31 13:22:22;;;;;;;0.10;0.10;;;;;;;;;;6183205;23;20047;-87
2023/08/31 13:24:48;;;;;;;0.10;0.10;;;;;;;;;;6183000;23;20450;-87
2023/08/31 13:27:14;;;;;;;0.10;0.10;;;;;;;;;;6158391;23;20013;-88
2023/08/31 13:29:40;;;;;;;0.10;0.10;;;;;;;;;;6158855;23;20010;-87
2023/08/31 13:32:07;;;;;;;0.10;0.10;;;;;;;;;;6158467;23;20076;-88
2023/08/31 13:34:33;;;;;;;0.10;0.10;;;;;;;;;;6158553;23;20068;-91
2023/08/31 13:36:59;;;;;;;0.20;0.20;;;;;;;;;;6158391;23;20024;-89
2023/08/31 13:39:26;;;;;;;0.20;0.20;;;;;;;;;;6158731;23;20016;-90
2023/08/31 13:41:52;;;;;;;0.20;0.20;;;;;;;;;;6182874;23;20013;-91
2023/08/31 13:44:20;;;;;;;0.10;0.10;;;;;;;;;;6133333;23;20009;-91
2023/08/31 13:46:46;;;;;;;0.10;0.10;;;;;;;;;;6134019;23;20614;-91
2023/08/31 13:49:12;;;;;;;0.17;0.17;;;;;;;;;;6133483;23;20019;-88
2023/08/31 13:51:38;;;;;;;0.10;0.10;;;;;;;;;;6158258;23;20388;-90
2023/08/31 13:54:04;;;;;;;0.20;0.20;;;;;;;;;;6133395;23;20017;-88
2023/08/31 13:56:30;;;;;;;0.10;0.10;;;;;;;;;;6157931;23;20016;-88
2023/08/31 13:58:56;;;;;;;0.10;0.10;;;;;;;;;;6158097;23;20350;-88
2023/08/31 14:01:22;;;;;;;0.10;0.10;;;;;;;;;;6184701;23;20539;-88
2023/08/31 14:03:48;;;;;;;0.10;0.10;;;;;;;;;;6158316;23;20016;-88
2023/08/31 14:06:14;;;;;;;0.10;0.10;;;;;;;;;;6182493;23;20067;-88
2023/08/31 14:08:40;;;;;;;0.10;0.10;;;;;;;;;;6158118;23;20009;-87
2023/08/31 14:11:06;;;;;;;0.10;0.10;;;;;;;;;;6158217;23;20013;-88
2023/08/31 14:13:32;;;;;;;0.10;0.10;;;;;;;;;;6157958;23;20075;-88
2023/08/31 14:15:58;;;;;;;0.10;0.10;;;;;;;;;;6158229;23;20020;-87
2023/08/31 14:18:25;;;;;;;0.10;0.10;;;;;;;;;;6182488;23;20028;-87
2023/08/31 14:20:52;;;;;;;0.10;0.10;;;;;;;;;;6182684;23;20035;-87
2023/08/31 14:23:17;;;;;;;0.20;0.20;;;;;;;;;;6157861;23;20087;-87
2023/08/31 14:25:45;;;;;;;0.57;0.57;;;;;;;;;;6157224;23;20375;-88
2023/08/31 14:28:11;;;;;;;0.10;0.10;;;;;;;;;;6182359;23;20013;-88
2023/08/31 14:30:38;;;;;;;0.10;0.10;;;;;;;;;;6157618;23;20009;-87
2023/08/31 14:33:04;;;;;;;0.20;0.20;;;;;;;;;;6157689;23;20448;-87
2023/08/31 14:35:30;;;;;;;0.10;0.10;;;;;;;;;;6182424;23;20410;-87
2023/08/31 14:37:58;;;;;;;0.22;0.22;;;;;;;;;;6157850;23;20017;-88
2023/08/31 14:40:24;;;;;;;0.52;0.50;;;;;;;;;;6158299;23;20017;-85